Time;durP1;ratioP1;P1;durP2;ratioP2;P2;SDS_P1;SDS_P2;PMS_P1;PMS_P2;Temp;Humidity;BMP_temperature;BMP_pressure;BME280_temperature;BME280_humidity;BME280_pressure;Samples;Min_cycle;Max_cycle;Signal;HPM_P1;HPM_P2
2023/08/06 00:00:25;;;;;;;5.18;3.47;;;;;;;;;;6302757;22;20011;-88
2023/08/06 00:02:51;;;;;;;5.60;3.70;;;;;;;;;;6303137;22;20011;-89
2023/08/06 00:05:21;;;;;;;4.53;3.88;;;;;;;;;;6302507;22;20015;-89
2023/08/06 00:07:50;;;;;;;4.88;3.67;;;;;;;;;;6275757;22;20019;-89
2023/08/06 00:10:16;;;;;;;8.55;3.70;;;;;;;;;;6302141;22;20018;-87
2023/08/06 00:12:43;;;;;;;4.45;3.58;;;;;;;;;;6303230;22;20065;-87
2023/08/06 00:15:09;;;;;;;4.63;3.70;;;;;;;;;;6301641;22;20278;-87
2023/08/06 00:17:35;;;;;;;4.95;3.85;;;;;;;;;;6303199;22;20011;-88
2023/08/06 00:20:06;;;;;;;5.07;3.92;;;;;;;;;;6302380;22;20082;-89
2023/08/06 00:22:31;;;;;;;;;;;;;;;;;;6276665;22;20046;-87
2023/08/06 00:24:58;;;;;;;5.30;3.03;;;;;;;;;;6303395;22;20243;-87
2023/08/06 00:27:24;;;;;;;3.90;3.13;;;;;;;;;;6304845;22;20022;-88
2023/08/06 00:29:50;;;;;;;5.30;3.80;;;;;;;;;;6304628;22;20093;-87
2023/08/06 00:32:16;;;;;;;6.15;4.13;;;;;;;;;;6304534;22;20066;-87
2023/08/06 00:34:42;;;;;;;4.43;3.40;;;;;;;;;;6305082;22;20011;-88
2023/08/06 00:37:08;;;;;;;4.70;3.70;;;;;;;;;;6303043;22;20043;-88
2023/08/06 00:39:34;;;;;;;6.43;3.42;;;;;;;;;;6276983;22;20053;-89
2023/08/06 00:42:00;;;;;;;4.32;3.60;;;;;;;;;;6304049;22;20112;-83
2023/08/06 00:44:26;;;;;;;5.18;3.60;;;;;;;;;;6301565;22;20038;-85
2023/08/06 00:46:52;;;;;;;6.68;3.80;;;;;;;;;;6304072;22;20007;-86
2023/08/06 00:49:18;;;;;;;5.43;3.65;;;;;;;;;;6303773;22;20011;-86
2023/08/06 00:51:44;;;;;;;5.30;3.53;;;;;;;;;;6304166;22;20018;-86
2023/08/06 00:54:10;;;;;;;4.90;3.67;;;;;;;;;;6274064;22;20011;-84
2023/08/06 00:56:37;;;;;;;4.70;3.35;;;;;;;;;;6304418;22;20020;-85
2023/08/06 00:59:04;;;;;;;6.55;3.78;;;;;;;;;;6303988;22;20076;-86
2023/08/06 01:01:30;;;;;;;5.05;3.75;;;;;;;;;;6304528;22;20012;-86
2023/08/06 01:03:56;;;;;;;4.15;2.97;;;;;;;;;;6303916;22;20011;-86
2023/08/06 01:06:28;;;;;;;4.25;3.25;;;;;;;;;;6303912;22;20363;-87
2023/08/06 01:09:06;;;;;;;6.03;3.78;;;;;;;;;;6303902;22;20081;-85
2023/08/06 01:11:32;;;;;;;3.92;3.35;;;;;;;;;;6303731;22;20019;-86
2023/08/06 01:14:12;;;;;;;5.13;3.17;;;;;;;;;;6303859;22;20094;-87
2023/08/06 01:16:39;;;;;;;5.70;3.40;;;;;;;;;;6304813;22;20094;-87
2023/08/06 01:19:05;;;;;;;3.78;2.95;;;;;;;;;;6304005;22;20011;-85
2023/08/06 01:21:31;;;;;;;3.72;2.90;;;;;;;;;;6275829;22;20049;-85
2023/08/06 01:23:57;;;;;;;4.10;3.17;;;;;;;;;;6303110;22;20019;-84
2023/08/06 01:26:44;;;;;;;3.45;3.15;;;;;;;;;;6276871;22;20015;-85
2023/08/06 01:29:13;;;;;;;3.85;2.85;;;;;;;;;;6303293;22;20012;-85
2023/08/06 01:31:40;;;;;;;3.80;3.40;;;;;;;;;;6304348;22;20068;-86
2023/08/06 01:34:08;;;;;;;5.03;3.67;;;;;;;;;;6303312;22;20013;-85
2023/08/06 01:36:34;;;;;;;4.60;3.55;;;;;;;;;;6275850;22;20011;-85
2023/08/06 01:39:00;;;;;;;5.63;3.70;;;;;;;;;;6275601;22;20015;-86
2023/08/06 01:41:26;;;;;;;4.97;3.38;;;;;;;;;;6276651;22;20023;-85
2023/08/06 01:43:52;;;;;;;3.95;3.00;;;;;;;;;;6304104;22;20012;-85
2023/08/06 01:46:18;;;;;;;3.70;3.03;;;;;;;;;;6303651;22;20018;-86
2023/08/06 01:48:44;;;;;;;3.58;2.95;;;;;;;;;;6276307;22;20026;-84
2023/08/06 01:51:10;;;;;;;5.70;2.90;;;;;;;;;;6302554;22;20007;-84
2023/08/06 01:53:36;;;;;;;4.53;3.05;;;;;;;;;;6276336;22;20015;-84
2023/08/06 01:56:02;;;;;;;5.60;3.30;;;;;;;;;;6303577;22;20016;-84
2023/08/06 01:58:28;;;;;;;4.13;3.22;;;;;;;;;;6303912;22;20019;-86
2023/08/06 02:00:54;;;;;;;5.82;3.22;;;;;;;;;;6303106;22;20057;-85
2023/08/06 02:03:20;;;;;;;4.55;3.30;;;;;;;;;;6304066;22;20017;-85
2023/08/06 02:05:46;;;;;;;4.43;3.17;;;;;;;;;;6302272;22;20096;-85
2023/08/06 02:08:12;;;;;;;5.15;3.40;;;;;;;;;;6302898;22;20382;-85
2023/08/06 02:10:38;;;;;;;3.80;2.65;;;;;;;;;;6304204;22;20089;-85
2023/08/06 02:13:04;;;;;;;5.63;3.25;;;;;;;;;;6303310;22;20016;-86
2023/08/06 02:15:30;;;;;;;4.20;2.83;;;;;;;;;;6275552;22;20041;-85
2023/08/06 02:17:56;;;;;;;3.78;3.00;;;;;;;;;;6276171;22;20391;-85
2023/08/06 02:20:22;;;;;;;4.60;3.38;;;;;;;;;;6301962;22;20041;-84
2023/08/06 02:22:48;;;;;;;4.97;3.17;;;;;;;;;;6276507;22;20015;-86
2023/08/06 02:25:14;;;;;;;5.07;3.47;;;;;;;;;;6303317;22;20064;-85
2023/08/06 02:27:40;;;;;;;5.15;4.15;;;;;;;;;;6304030;22;20012;-85
2023/08/06 02:30:06;;;;;;;4.90;3.35;;;;;;;;;;6302852;22;20014;-85
2023/08/06 02:32:35;;;;;;;5.68;3.30;;;;;;;;;;6304094;22;20012;-90
2023/08/06 02:35:01;;;;;;;5.63;3.25;;;;;;;;;;6301434;22;20015;-84
2023/08/06 02:37:27;;;;;;;4.82;3.20;;;;;;;;;;6303426;22;20326;-86
2023/08/06 02:39:53;;;;;;;3.70;3.10;;;;;;;;;;6303132;22;20015;-85
2023/08/06 02:42:19;;;;;;;5.35;3.22;;;;;;;;;;6275598;22;20019;-85
2023/08/06 02:44:45;;;;;;;4.20;3.20;;;;;;;;;;6276031;22;20392;-87
2023/08/06 02:47:11;;;;;;;5.07;3.63;;;;;;;;;;6302358;22;20098;-86
2023/08/06 02:49:37;;;;;;;4.25;3.30;;;;;;;;;;6303079;22;20042;-84
2023/08/06 02:52:04;;;;;;;6.22;3.33;;;;;;;;;;6303198;22;20064;-85
2023/08/06 02:54:30;;;;;;;5.07;3.45;;;;;;;;;;6303181;22;20058;-85
2023/08/06 02:56:55;;;;;;;4.95;3.70;;;;;;;;;;6302558;22;20011;-84
2023/08/06 02:59:21;;;;;;;4.93;3.60;;;;;;;;;;6303366;22;20082;-84
2023/08/06 03:01:47;;;;;;;4.95;3.15;;;;;;;;;;6303245;22;20011;-85
2023/08/06 03:04:13;;;;;;;5.70;3.58;;;;;;;;;;6301561;22;20061;-85
2023/08/06 03:06:39;;;;;;;4.05;3.33;;;;;;;;;;6303211;22;20367;-85
2023/08/06 03:09:05;;;;;;;3.42;3.13;;;;;;;;;;6302702;22;20012;-85
2023/08/06 03:11:31;;;;;;;6.95;3.72;;;;;;;;;;6303131;22;20428;-84
2023/08/06 03:13:57;;;;;;;4.85;3.40;;;;;;;;;;6302842;22;20061;-86
2023/08/06 03:16:23;;;;;;;4.80;3.40;;;;;;;;;;6301957;22;20015;-84
2023/08/06 03:18:49;;;;;;;5.15;3.50;;;;;;;;;;6302704;22;20448;-85
2023/08/06 03:21:15;;;;;;;5.22;3.60;;;;;;;;;;6302636;22;20017;-84
2023/08/06 03:23:42;;;;;;;4.47;3.38;;;;;;;;;;6275953;22;20444;-85
2023/08/06 03:26:08;;;;;;;4.15;3.33;;;;;;;;;;6302495;22;20015;-84
2023/08/06 03:28:34;;;;;;;4.53;3.42;;;;;;;;;;6275698;22;20454;-85
2023/08/06 03:31:01;;;;;;;4.45;3.20;;;;;;;;;;6301725;22;20015;-85
2023/08/06 03:33:27;;;;;;;5.90;3.45;;;;;;;;;;6302801;22;20011;-85
2023/08/06 03:35:53;;;;;;;5.15;3.50;;;;;;;;;;6275244;22;20041;-84
2023/08/06 03:38:19;;;;;;;5.88;3.47;;;;;;;;;;6275388;22;20021;-85
2023/08/06 03:40:45;;;;;;;4.70;2.92;;;;;;;;;;6275470;22;20078;-85
2023/08/06 03:43:11;;;;;;;5.63;3.60;;;;;;;;;;6301981;22;20026;-84
2023/08/06 03:45:37;;;;;;;4.65;3.85;;;;;;;;;;6301821;22;20360;-85
2023/08/06 03:48:03;;;;;;;5.10;3.45;;;;;;;;;;6302326;22;20027;-85
2023/08/06 03:50:29;;;;;;;4.50;3.38;;;;;;;;;;6303110;22;20094;-85
2023/08/06 03:52:55;;;;;;;4.35;3.53;;;;;;;;;;6274994;22;20093;-85
2023/08/06 03:55:21;;;;;;;4.93;3.90;;;;;;;;;;6302729;22;20395;-85
2023/08/06 03:57:47;;;;;;;4.07;3.65;;;;;;;;;;6304013;22;20055;-84
2023/08/06 04:00:13;;;;;;;4.82;3.50;;;;;;;;;;6302967;22;20012;-84
2023/08/06 04:02:39;;;;;;;4.03;3.58;;;;;;;;;;6304438;22;20030;-84
2023/08/06 04:05:05;;;;;;;7.03;3.88;;;;;;;;;;6304830;22;20030;-84
2023/08/06 04:07:31;;;;;;;5.35;3.63;;;;;;;;;;6304963;22;20061;-85
2023/08/06 04:09:59;;;;;;;4.78;3.92;;;;;;;;;;6304000;22;20082;-84
2023/08/06 04:12:25;;;;;;;4.55;3.85;;;;;;;;;;6304782;22;20007;-84
2023/08/06 04:14:54;;;;;;;4.80;3.60;;;;;;;;;;6276143;22;20070;-85
2023/08/06 04:17:21;;;;;;;4.35;3.58;;;;;;;;;;6277280;22;20376;-85
2023/08/06 04:19:54;;;;;;;6.32;3.90;;;;;;;;;;6277826;22;20015;-85
2023/08/06 04:22:20;;;;;;;6.63;3.83;;;;;;;;;;6304921;22;20378;-85
2023/08/06 04:24:46;;;;;;;5.38;3.80;;;;;;;;;;6304630;22;20015;-85
2023/08/06 04:27:13;;;;;;;5.22;3.95;;;;;;;;;;6275923;22;20019;-84
2023/08/06 04:29:39;;;;;;;4.53;4.07;;;;;;;;;;6277284;22;20015;-84
2023/08/06 04:32:06;;;;;;;4.60;3.70;;;;;;;;;;6304380;22;20039;-84
2023/08/06 04:34:32;;;;;;;6.47;4.15;;;;;;;;;;6277245;22;20015;-84
2023/08/06 04:36:59;;;;;;;5.38;3.88;;;;;;;;;;6304323;22;20015;-84
2023/08/06 04:39:24;;;;;;;5.60;4.30;;;;;;;;;;6276454;22;20053;-84
2023/08/06 04:41:51;;;;;;;6.47;3.90;;;;;;;;;;6304644;22;20019;-84
2023/08/06 04:44:17;;;;;;;5.40;3.97;;;;;;;;;;6275568;22;20015;-84
2023/08/06 04:46:43;;;;;;;6.00;4.05;;;;;;;;;;6304959;22;20137;-84
2023/08/06 04:49:09;;;;;;;6.05;4.00;;;;;;;;;;6304064;22;20131;-83
2023/08/06 04:51:35;;;;;;;6.05;4.00;;;;;;;;;;6304620;22;20011;-83
2023/08/06 04:54:01;;;;;;;6.03;3.78;;;;;;;;;;6303470;22;20027;-83
2023/08/06 04:56:27;;;;;;;5.40;4.20;;;;;;;;;;6301749;22;20348;-84
2023/08/06 04:58:53;;;;;;;4.60;3.83;;;;;;;;;;6303404;22;20082;-85
2023/08/06 05:01:19;;;;;;;6.03;4.32;;;;;;;;;;6301193;22;20022;-84
2023/08/06 05:03:45;;;;;;;6.20;3.95;;;;;;;;;;6304224;22;20332;-86
2023/08/06 05:06:11;;;;;;;5.25;4.50;;;;;;;;;;6303158;22;20443;-85
2023/08/06 05:08:37;;;;;;;5.32;3.90;;;;;;;;;;6304124;22;20065;-86
2023/08/06 05:11:03;;;;;;;6.32;5.15;;;;;;;;;;6275684;22;20069;-85
2023/08/06 05:13:29;;;;;;;7.13;4.45;;;;;;;;;;6275765;22;20030;-85
2023/08/06 05:15:55;;;;;;;5.90;4.35;;;;;;;;;;6303608;22;20020;-85
2023/08/06 05:18:21;;;;;;;5.95;4.38;;;;;;;;;;6303706;22;20340;-86
2023/08/06 05:20:48;;;;;;;7.20;4.18;;;;;;;;;;6276917;22;20022;-86
2023/08/06 05:23:14;;;;;;;5.80;4.28;;;;;;;;;;6274852;22;20340;-85
2023/08/06 05:25:40;;;;;;;6.85;4.88;;;;;;;;;;6276058;22;20015;-86
2023/08/06 05:28:06;;;;;;;6.75;4.70;;;;;;;;;;6249747;22;20378;-85
2023/08/06 05:30:32;;;;;;;6.85;4.53;;;;;;;;;;6303287;22;20011;-83
2023/08/06 05:32:58;;;;;;;5.15;3.83;;;;;;;;;;6274409;22;20046;-86
2023/08/06 05:35:24;;;;;;;7.25;5.00;;;;;;;;;;6303480;22;20011;-82
2023/08/06 05:37:50;;;;;;;5.53;4.32;;;;;;;;;;6276054;22;20027;-83
2023/08/06 05:40:17;;;;;;;5.50;4.55;;;;;;;;;;6302528;22;20015;-83
2023/08/06 05:42:43;;;;;;;5.65;4.45;;;;;;;;;;6274582;22;20007;-85
2023/08/06 05:45:10;;;;;;;6.30;4.70;;;;;;;;;;6302493;22;20325;-82
2023/08/06 05:47:36;;;;;;;6.28;4.57;;;;;;;;;;6303734;22;20332;-83
2023/08/06 05:50:02;;;;;;;8.80;5.57;;;;;;;;;;6302337;22;20518;-84
2023/08/06 05:52:28;;;;;;;6.70;4.90;;;;;;;;;;6279055;22;20073;-96
2023/08/06 05:54:55;;;;;;;8.55;5.40;;;;;;;;;;6285834;22;20042;-96
2023/08/06 05:57:21;;;;;;;7.53;5.70;;;;;;;;;;6301974;22;20064;-83
2023/08/06 05:59:47;;;;;;;8.50;5.43;;;;;;;;;;6275760;22;20033;-87
2023/08/06 06:02:13;;;;;;;9.73;5.90;;;;;;;;;;6275507;22;20015;-88
2023/08/06 06:04:41;;;;;;;7.28;5.10;;;;;;;;;;6275478;22;20019;-83
2023/08/06 06:07:07;;;;;;;7.05;5.15;;;;;;;;;;6274626;22;20011;-86
2023/08/06 06:09:33;;;;;;;7.65;5.55;;;;;;;;;;6275922;22;20022;-85
2023/08/06 06:11:59;;;;;;;9.20;5.18;;;;;;;;;;6300573;22;20073;-85
2023/08/06 06:14:25;;;;;;;8.85;5.18;;;;;;;;;;6302667;22;20007;-86
2023/08/06 06:16:52;;;;;;;6.35;4.68;;;;;;;;;;6275395;22;20041;-87
2023/08/06 06:19:19;;;;;;;6.35;5.05;;;;;;;;;;6301992;22;20049;-87
2023/08/06 06:21:45;;;;;;;8.27;5.25;;;;;;;;;;6303528;22;20022;-87
2023/08/06 06:24:11;;;;;;;5.20;3.95;;;;;;;;;;6301862;22;20017;-86
2023/08/06 06:26:37;;;;;;;6.82;5.15;;;;;;;;;;6302809;22;20016;-86
2023/08/06 06:29:03;;;;;;;7.38;5.15;;;;;;;;;;6302565;22;20018;-88
2023/08/06 06:31:29;;;;;;;5.85;4.50;;;;;;;;;;6302244;22;20455;-86
2023/08/06 06:33:55;;;;;;;7.88;5.38;;;;;;;;;;6274644;22;20090;-89
2023/08/06 06:36:21;;;;;;;6.32;4.53;;;;;;;;;;6303348;22;20015;-87
2023/08/06 06:38:49;;;;;;;6.00;4.68;;;;;;;;;;6273397;22;20071;-87
2023/08/06 06:41:15;;;;;;;6.45;4.85;;;;;;;;;;6301458;22;20022;-88
2023/08/06 06:43:41;;;;;;;5.88;4.72;;;;;;;;;;6303208;22;20019;-87
2023/08/06 06:46:07;;;;;;;7.70;5.05;;;;;;;;;;6303115;22;20022;-87
2023/08/06 06:48:34;;;;;;;7.35;4.80;;;;;;;;;;6276182;22;20018;-86
2023/08/06 06:51:00;;;;;;;6.43;4.50;;;;;;;;;;6303101;22;20022;-89
2023/08/06 06:53:29;;;;;;;6.38;4.78;;;;;;;;;;6302583;22;20061;-86
2023/08/06 06:55:55;;;;;;;7.97;5.07;;;;;;;;;;6302354;22;20411;-87
2023/08/06 06:58:22;;;;;;;6.05;5.05;;;;;;;;;;6302829;22;20086;-87
2023/08/06 07:00:48;;;;;;;7.30;5.32;;;;;;;;;;6303641;22;20017;-91
2023/08/06 07:03:15;;;;;;;6.43;5.15;;;;;;;;;;6303889;22;20011;-90
2023/08/06 07:05:41;;;;;;;6.60;5.32;;;;;;;;;;6303307;22;20019;-85
2023/08/06 07:08:07;;;;;;;8.60;5.30;;;;;;;;;;6300297;22;20390;-85
2023/08/06 07:10:33;;;;;;;7.45;4.60;;;;;;;;;;6268282;22;20525;-82
2023/08/06 07:13:00;;;;;;;5.97;5.00;;;;;;;;;;6272721;22;20026;-84
2023/08/06 07:15:26;;;;;;;7.00;4.82;;;;;;;;;;6273127;22;20038;-82
2023/08/06 07:17:52;;;;;;;6.10;4.82;;;;;;;;;;6301875;22;20008;-89
2023/08/06 07:20:18;;;;;;;6.95;4.55;;;;;;;;;;6301137;22;20015;-87
2023/08/06 07:22:44;;;;;;;5.70;4.32;;;;;;;;;;6275058;22;20011;-89
2023/08/06 07:25:10;;;;;;;7.15;4.97;;;;;;;;;;6300875;22;20019;-88
2023/08/06 07:27:36;;;;;;;5.15;4.10;;;;;;;;;;6301391;22;20015;-92
2023/08/06 07:30:02;;;;;;;6.20;4.90;;;;;;;;;;6301917;22;20367;-84
2023/08/06 07:32:28;;;;;;;8.45;4.93;;;;;;;;;;6302054;22;20458;-88
2023/08/06 07:34:59;;;;;;;6.50;4.75;;;;;;;;;;6301114;22;20022;-91
2023/08/06 07:37:25;;;;;;;5.55;4.38;;;;;;;;;;6302968;22;20019;-92
2023/08/06 07:39:51;;;;;;;5.78;4.70;;;;;;;;;;6303459;22;20085;-92
2023/08/06 07:42:20;;;;;;;5.10;4.60;;;;;;;;;;6305414;22;20046;-91
2023/08/06 07:44:50;;;;;;;5.60;5.03;;;;;;;;;;6305237;22;20490;-91
2023/08/06 07:47:16;;;;;;;5.25;4.35;;;;;;;;;;6275292;22;20019;-89
2023/08/06 07:49:42;;;;;;;4.93;4.43;;;;;;;;;;6275358;22;20463;-91
2023/08/06 07:52:08;;;;;;;5.93;4.43;;;;;;;;;;6305857;22;20008;-90
2023/08/06 07:54:34;;;;;;;5.32;4.50;;;;;;;;;;6304456;22;20440;-91
2023/08/06 07:57:00;;;;;;;6.47;4.43;;;;;;;;;;6275860;22;20019;-94
2023/08/06 07:59:26;;;;;;;6.40;4.63;;;;;;;;;;6303822;22;20018;-93
2023/08/06 08:01:52;;;;;;;5.70;4.38;;;;;;;;;;6275937;22;20015;-92
2023/08/06 08:04:18;;;;;;;4.70;3.83;;;;;;;;;;6303238;22;20011;-90
2023/08/06 08:06:44;;;;;;;5.07;3.90;;;;;;;;;;6275990;22;20454;-91
2023/08/06 08:09:10;;;;;;;6.50;4.50;;;;;;;;;;6304676;22;20023;-95
2023/08/06 08:11:36;;;;;;;5.50;4.18;;;;;;;;;;6278759;22;20019;-90
2023/08/06 08:14:02;;;;;;;4.32;3.58;;;;;;;;;;6305061;22;20012;-91
2023/08/06 08:16:28;;;;;;;5.00;4.03;;;;;;;;;;6304295;22;20022;-95
2023/08/06 08:18:54;;;;;;;4.75;3.75;;;;;;;;;;6303273;22;20014;-91
2023/08/06 08:21:20;;;;;;;4.57;3.55;;;;;;;;;;6278574;22;20023;-93
2023/08/06 08:23:46;;;;;;;4.80;4.13;;;;;;;;;;6304191;22;20018;-92
2023/08/06 08:26:12;;;;;;;4.57;4.03;;;;;;;;;;6275309;22;20426;-92
2023/08/06 08:28:38;;;;;;;5.82;4.35;;;;;;;;;;6303713;22;20016;-92
2023/08/06 08:31:08;;;;;;;5.18;3.67;;;;;;;;;;6304834;22;20057;-94
2023/08/06 08:33:34;;;;;;;5.18;4.50;;;;;;;;;;6303810;22;20367;-93
2023/08/06 08:36:00;;;;;;;5.60;4.03;;;;;;;;;;6302717;22;20094;-90
2023/08/06 08:38:26;;;;;;;5.22;4.03;;;;;;;;;;6306132;22;20094;-94
2023/08/06 08:40:54;;;;;;;5.82;3.60;;;;;;;;;;6306961;22;20016;-96
2023/08/06 08:43:23;;;;;;;3.83;3.38;;;;;;;;;;6310033;22;20048;-93
2023/08/06 08:45:55;;;;;;;4.13;3.30;;;;;;;;;;6285170;22;20019;-94
2023/08/06 08:48:22;;;;;;;4.35;3.38;;;;;;;;;;6306108;22;20014;-93
2023/08/06 08:50:49;;;;;;;4.13;3.42;;;;;;;;;;6278751;22;20042;-95
2023/08/06 08:53:16;;;;;;;4.07;3.63;;;;;;;;;;6280888;22;20019;-92
2023/08/06 08:55:43;;;;;;;3.85;3.33;;;;;;;;;;6306652;22;20011;-93
2023/08/06 08:58:09;;;;;;;6.18;3.92;;;;;;;;;;6305166;22;20340;-94
2023/08/06 09:00:35;;;;;;;3.67;3.28;;;;;;;;;;6307279;22;20090;-94
2023/08/06 09:03:02;;;;;;;5.10;3.47;;;;;;;;;;6305010;22;20011;-93
2023/08/06 09:05:31;;;;;;;4.13;3.45;;;;;;;;;;6310018;22;20059;-96
2023/08/06 09:07:59;;;;;;;4.65;3.50;;;;;;;;;;6284221;22;20028;-96
2023/08/06 09:10:25;;;;;;;4.63;4.07;;;;;;;;;;6307112;22;20022;-96
2023/08/06 09:12:52;;;;;;;4.95;4.55;;;;;;;;;;6285240;22;20071;-96
2023/08/06 09:15:18;;;;;;;3.83;3.42;;;;;;;;;;6283642;22;20015;-92
2023/08/06 09:17:44;;;;;;;4.03;3.33;;;;;;;;;;6305771;22;20012;-94
2023/08/06 09:20:11;;;;;;;3.90;3.20;;;;;;;;;;6304047;22;20079;-94
2023/08/06 09:22:37;;;;;;;5.25;3.22;;;;;;;;;;6306922;22;20007;-93
2023/08/06 09:25:09;;;;;;;3.63;3.05;;;;;;;;;;6303943;22;20046;-88
2023/08/06 09:27:35;;;;;;;3.60;3.30;;;;;;;;;;6303831;22;20437;-87
2023/08/06 09:30:01;;;;;;;4.57;3.85;;;;;;;;;;6302527;22;20022;-84
2023/08/06 09:32:27;;;;;;;4.07;3.15;;;;;;;;;;6302685;22;20066;-85
2023/08/06 09:34:56;;;;;;;3.60;3.22;;;;;;;;;;6274741;22;20011;-86
2023/08/06 09:37:22;;;;;;;4.93;3.92;;;;;;;;;;6275127;22;20513;-84
2023/08/06 09:39:48;;;;;;;3.38;3.08;;;;;;;;;;6276460;22;20026;-84
2023/08/06 09:42:15;;;;;;;3.90;3.50;;;;;;;;;;6273891;22;20019;-83
2023/08/06 09:44:41;;;;;;;3.83;3.45;;;;;;;;;;6275935;22;20466;-84
2023/08/06 09:47:07;;;;;;;3.85;3.42;;;;;;;;;;6303254;22;20342;-84
2023/08/06 09:49:33;;;;;;;3.50;3.17;;;;;;;;;;6302645;22;20050;-84
2023/08/06 09:52:00;;;;;;;3.70;3.40;;;;;;;;;;6275145;22;20049;-84
2023/08/06 09:54:27;;;;;;;4.05;3.03;;;;;;;;;;6303074;22;20007;-84
2023/08/06 09:56:56;;;;;;;3.90;3.17;;;;;;;;;;6303210;22;20065;-83
2023/08/06 09:59:23;;;;;;;4.18;3.50;;;;;;;;;;6303084;22;20444;-84
2023/08/06 10:01:49;;;;;;;5.53;3.80;;;;;;;;;;6302791;22;20011;-84
2023/08/06 10:04:16;;;;;;;4.28;3.63;;;;;;;;;;6301336;22;20019;-84
2023/08/06 10:06:43;;;;;;;4.53;3.63;;;;;;;;;;6275279;22;20019;-84
2023/08/06 10:09:09;;;;;;;3.85;3.00;;;;;;;;;;6302972;22;20419;-84
2023/08/06 10:11:37;;;;;;;3.22;2.88;;;;;;;;;;6302524;22;20012;-86
2023/08/06 10:14:23;;;;;;;3.30;2.90;;;;;;;;;;6272934;22;20019;-84
2023/08/06 10:16:49;;;;;;;3.53;3.13;;;;;;;;;;6276606;22;20029;-84
2023/08/06 10:19:16;;;;;;;4.07;3.08;;;;;;;;;;6300439;22;20098;-85
2023/08/06 10:21:42;;;;;;;4.45;3.33;;;;;;;;;;6303465;22;20041;-84
2023/08/06 10:24:11;;;;;;;3.10;2.80;;;;;;;;;;6275300;22;20015;-86
2023/08/06 10:26:37;;;;;;;3.42;3.08;;;;;;;;;;6276372;22;20019;-86
2023/08/06 10:29:24;;;;;;;4.40;3.53;;;;;;;;;;6275866;22;20045;-86
2023/08/06 10:31:59;;;;;;;3.15;2.22;;;;;;;;;;6254304;22;20295;-84
2023/08/06 10:34:25;;;;;;;3.35;2.58;;;;;;;;;;6273354;22;20047;-85
2023/08/06 10:36:54;;;;;;;3.47;2.50;;;;;;;;;;6275766;22;20019;-85
2023/08/06 10:39:20;;;;;;;3.85;2.53;;;;;;;;;;6303207;22;20011;-86
2023/08/06 10:41:46;;;;;;;3.75;2.42;;;;;;;;;;6303462;22;20061;-84
2023/08/06 10:44:12;;;;;;;3.70;2.50;;;;;;;;;;6302209;22;20371;-86
2023/08/06 10:46:39;;;;;;;3.03;2.70;;;;;;;;;;6275000;22;20054;-84
2023/08/06 10:49:07;;;;;;;2.72;2.25;;;;;;;;;;6302930;22;20011;-84
2023/08/06 10:51:33;;;;;;;3.70;2.80;;;;;;;;;;6275047;22;20090;-86
2023/08/06 10:53:59;;;;;;;2.75;2.55;;;;;;;;;;6275218;22;20371;-86
2023/08/06 10:56:27;;;;;;;2.10;1.90;;;;;;;;;;6302878;22;20015;-82
2023/08/06 10:58:56;;;;;;;2.70;2.20;;;;;;;;;;6302987;22;20072;-81
2023/08/06 11:01:23;;;;;;;3.15;2.38;;;;;;;;;;6301430;22;20054;-83
2023/08/06 11:03:50;;;;;;;2.70;2.22;;;;;;;;;;6302167;22;20110;-84
2023/08/06 11:06:22;;;;;;;2.33;2.08;;;;;;;;;;6299839;22;20011;-91
2023/08/06 11:08:52;;;;;;;2.90;2.00;;;;;;;;;;6300926;22;20374;-84
2023/08/06 11:11:19;;;;;;;2.60;2.40;;;;;;;;;;6272672;22;20025;-83
2023/08/06 11:13:46;;;;;;;2.67;2.38;;;;;;;;;;6301145;22;20007;-85
2023/08/06 11:16:13;;;;;;;2.28;2.08;;;;;;;;;;6298323;22;20022;-83
2023/08/06 11:18:41;;;;;;;2.30;2.10;;;;;;;;;;6301096;22;20007;-83
2023/08/06 11:21:07;;;;;;;3.63;2.25;;;;;;;;;;6274349;22;20129;-84
2023/08/06 11:23:34;;;;;;;2.38;1.70;;;;;;;;;;6304070;22;20084;-84
2023/08/06 11:26:00;;;;;;;2.10;2.00;;;;;;;;;;6302305;22;20387;-83
2023/08/06 11:28:26;;;;;;;2.60;2.17;;;;;;;;;;6302903;22;20022;-83
2023/08/06 11:30:53;;;;;;;2.13;1.70;;;;;;;;;;6301632;22;20340;-83
2023/08/06 11:33:25;;;;;;;3.58;1.90;;;;;;;;;;6275305;22;20015;-84
2023/08/06 11:35:51;;;;;;;1.58;1.45;;;;;;;;;;6302655;22;20023;-83
2023/08/06 11:38:18;;;;;;;1.70;1.60;;;;;;;;;;6302563;22;20007;-84
2023/08/06 11:40:51;;;;;;;1.67;1.48;;;;;;;;;;6275835;22;20321;-84
2023/08/06 11:43:19;;;;;;;2.10;1.90;;;;;;;;;;6275338;22;20097;-85
2023/08/06 11:45:45;;;;;;;1.90;1.70;;;;;;;;;;6301822;22;20064;-84
2023/08/06 11:48:11;;;;;;;3.15;1.50;;;;;;;;;;6300901;22;20015;-81
2023/08/06 11:50:41;;;;;;;2.13;1.40;;;;;;;;;;6275168;22;20039;-81
2023/08/06 11:53:07;;;;;;;1.50;1.40;;;;;;;;;;6275135;22;20011;-82
2023/08/06 11:55:33;;;;;;;1.63;1.52;;;;;;;;;;6275696;22;20019;-82
2023/08/06 11:58:03;;;;;;;1.38;1.27;;;;;;;;;;6274241;22;20440;-84
2023/08/06 12:00:29;;;;;;;;;;;;;;;;;;6301641;22;20034;-84
2023/08/06 12:02:56;;;;;;;1.58;1.08;;;;;;;;;;6300950;22;19914;-84
2023/08/06 12:05:24;;;;;;;3.38;1.50;;;;;;;;;;6301997;22;20023;-84
2023/08/06 12:07:54;;;;;;;2.08;1.42;;;;;;;;;;6300616;22;20396;-84
2023/08/06 12:10:20;;;;;;;2.80;0.98;;;;;;;;;;6302342;22;20116;-85
2023/08/06 12:12:47;;;;;;;1.92;1.27;;;;;;;;;;6302611;22;20327;-86
2023/08/06 12:15:13;;;;;;;1.40;1.30;;;;;;;;;;6301315;22;20015;-85
2023/08/06 12:17:39;;;;;;;1.58;1.48;;;;;;;;;;6303096;22;20018;-85
2023/08/06 12:20:06;;;;;;;1.38;1.27;;;;;;;;;;6304096;22;20007;-85
2023/08/06 12:22:34;;;;;;;4.93;1.50;;;;;;;;;;6304423;22;20015;-85
2023/08/06 12:25:01;;;;;;;1.45;1.30;;;;;;;;;;6303397;22;20108;-84
2023/08/06 12:27:27;;;;;;;1.40;1.20;;;;;;;;;;6276509;22;20444;-84
2023/08/06 12:29:53;;;;;;;1.23;1.13;;;;;;;;;;6304773;22;20015;-88
2023/08/06 12:32:19;;;;;;;1.52;1.42;;;;;;;;;;6274822;22;20026;-85
2023/08/06 12:34:45;;;;;;;1.73;1.48;;;;;;;;;;6304744;22;20011;-85
2023/08/06 12:37:11;;;;;;;1.80;1.48;;;;;;;;;;6302392;22;20043;-86
2023/08/06 12:39:37;;;;;;;1.55;1.38;;;;;;;;;;6303287;22;20023;-86
2023/08/06 12:42:04;;;;;;;2.17;1.40;;;;;;;;;;6302711;22;20494;-86
2023/08/06 12:44:30;;;;;;;1.20;1.10;;;;;;;;;;6303086;22;20452;-89
2023/08/06 12:46:56;;;;;;;2.83;1.38;;;;;;;;;;6303924;22;20011;-85
2023/08/06 12:49:23;;;;;;;1.48;1.38;;;;;;;;;;6276239;22;20047;-85
2023/08/06 12:51:49;;;;;;;1.73;1.33;;;;;;;;;;6304206;22;20082;-84
2023/08/06 12:54:18;;;;;;;1.50;1.40;;;;;;;;;;6275806;22;20086;-84
2023/08/06 12:56:44;;;;;;;1.90;1.40;;;;;;;;;;6276721;22;20022;-84
2023/08/06 12:59:10;;;;;;;1.73;1.38;;;;;;;;;;6274833;22;20513;-84
2023/08/06 13:01:37;;;;;;;2.85;1.38;;;;;;;;;;6303144;22;20018;-85
2023/08/06 13:04:04;;;;;;;1.80;1.15;;;;;;;;;;6303631;22;20007;-85
2023/08/06 13:06:30;;;;;;;1.30;1.20;;;;;;;;;;6303493;22;20031;-84
2023/08/06 13:08:57;;;;;;;2.40;1.30;;;;;;;;;;6303432;22;20026;-85
2023/08/06 13:11:23;;;;;;;1.40;1.23;;;;;;;;;;6302402;22;20109;-85
2023/08/06 13:13:49;;;;;;;1.60;1.40;;;;;;;;;;6271835;22;20027;-84
2023/08/06 13:16:15;;;;;;;1.33;1.23;;;;;;;;;;6302699;22;20034;-84
2023/08/06 13:18:41;;;;;;;1.40;1.30;;;;;;;;;;6273092;22;20336;-84
2023/08/06 13:21:07;;;;;;;1.42;1.20;;;;;;;;;;6301205;22;20011;-88
2023/08/06 13:23:33;;;;;;;2.03;1.08;;;;;;;;;;6275607;22;20051;-84
2023/08/06 13:25:59;;;;;;;1.80;1.17;;;;;;;;;;6301751;22;20355;-85
2023/08/06 13:28:25;;;;;;;2.03;1.20;;;;;;;;;;6275874;22;20090;-86
2023/08/06 13:30:51;;;;;;;1.98;1.17;;;;;;;;;;6303943;22;20011;-87
2023/08/06 13:33:17;;;;;;;1.00;0.90;;;;;;;;;;6275960;22;20019;-85
2023/08/06 13:35:43;;;;;;;1.48;1.17;;;;;;;;;;6275880;22;20011;-85
2023/08/06 13:38:09;;;;;;;1.10;0.93;;;;;;;;;;6274173;22;20085;-85
2023/08/06 13:40:35;;;;;;;1.80;1.42;;;;;;;;;;6302780;22;20051;-86
2023/08/06 13:43:01;;;;;;;1.90;1.30;;;;;;;;;;6301359;22;20016;-85
2023/08/06 13:45:27;;;;;;;2.28;1.30;;;;;;;;;;6302053;22;20578;-83
2023/08/06 13:47:54;;;;;;;3.30;0.95;;;;;;;;;;6305083;22;20095;-88
2023/08/06 13:50:22;;;;;;;1.88;1.30;;;;;;;;;;6305484;22;20015;-89
2023/08/06 13:52:48;;;;;;;2.47;1.30;;;;;;;;;;6304288;22;20015;-85
2023/08/06 13:55:14;;;;;;;2.05;1.02;;;;;;;;;;6303407;22;20019;-86
2023/08/06 13:57:40;;;;;;;2.10;1.52;;;;;;;;;;6304079;22;20511;-85
2023/08/06 14:00:06;;;;;;;1.83;1.30;;;;;;;;;;6275966;22;20054;-87
2023/08/06 14:02:32;;;;;;;1.83;1.27;;;;;;;;;;6276256;22;20015;-85
2023/08/06 14:04:58;;;;;;;2.17;1.20;;;;;;;;;;6303047;22;20467;-86
2023/08/06 14:07:24;;;;;;;1.42;1.30;;;;;;;;;;6303412;22;20019;-86
2023/08/06 14:09:50;;;;;;;1.45;1.20;;;;;;;;;;6303348;22;20022;-87
2023/08/06 14:12:16;;;;;;;2.15;1.60;;;;;;;;;;6303494;22;20015;-85
2023/08/06 14:14:42;;;;;;;1.58;1.45;;;;;;;;;;6303495;22;20011;-86
2023/08/06 14:17:08;;;;;;;1.83;1.42;;;;;;;;;;6302487;22;20034;-85
2023/08/06 14:19:34;;;;;;;2.83;1.50;;;;;;;;;;6276407;22;20019;-85
2023/08/06 14:22:00;;;;;;;2.40;1.40;;;;;;;;;;6275781;22;20008;-85
2023/08/06 14:24:26;;;;;;;1.52;1.42;;;;;;;;;;6303212;22;20019;-87
2023/08/06 14:26:53;;;;;;;1.90;1.50;;;;;;;;;;6303927;22;20378;-85
2023/08/06 14:29:19;;;;;;;2.10;1.48;;;;;;;;;;6303409;22;20016;-89
2023/08/06 14:31:45;;;;;;;2.25;1.70;;;;;;;;;;6303402;22;20103;-86
2023/08/06 14:34:11;;;;;;;3.10;1.75;;;;;;;;;;6302166;22;20371;-88
2023/08/06 14:36:37;;;;;;;1.95;1.40;;;;;;;;;;6302622;22;20060;-90
2023/08/06 14:39:03;;;;;;;1.90;1.42;;;;;;;;;;6301615;22;20019;-85